Time;durP1;ratioP1;P1;durP2;ratioP2;P2;SDS_P1;SDS_P2;PMS_P1;PMS_P2;Temp;Humidity;BMP_temperature;BMP_pressure;BME280_temperature;BME280_humidity;BME280_pressure;Samples;Min_cycle;Max_cycle;Signal;HPM_P1;HPM_P2
2022/10/26 00:01:27;;;;;;;1.53;1.20;;;15.90;89.10;;;;;;5027638;28;20460;-49
2022/10/26 00:03:57;;;;;;;0.90;0.90;;;15.90;89.10;;;;;;5030461;28;20463;-49
2022/10/26 00:06:28;;;;;;;1.50;1.00;;;15.90;89.10;;;;;;5066467;28;20427;-49
2022/10/26 00:08:57;;;;;;;1.33;1.23;;;15.90;89.10;;;;;;5032010;28;20463;-49
2022/10/26 00:11:27;;;;;;;2.00;1.50;;;15.90;89.10;;;;;;5045109;28;20469;-49
2022/10/26 00:13:56;;;;;;;1.47;0.90;;;15.90;89.10;;;;;;5029554;28;20513;-49
2022/10/26 00:16:26;;;;;;;1.57;1.00;;;15.90;89.10;;;;;;5010365;28;20433;-49
2022/10/26 00:18:55;;;;;;;1.20;1.00;;;15.90;89.10;;;;;;5028618;28;20458;-49
2022/10/26 00:21:24;;;;;;;2.83;1.23;;;15.90;89.10;;;;;;5029625;28;20869;-48
2022/10/26 00:23:53;;;;;;;4.30;1.20;;;15.90;89.10;;;;;;5029873;28;20569;-48
2022/10/26 00:26:21;;;;;;;1.73;1.00;;;15.90;89.10;;;;;;5025374;28;20850;-49
2022/10/26 00:28:53;;;;;;;3.00;1.00;;;15.90;89.20;;;;;;5022684;28;20542;-49
2022/10/26 00:31:22;;;;;;;1.20;1.10;;;15.90;89.10;;;;;;5047330;28;20459;-49
2022/10/26 00:33:52;;;;;;;1.13;1.03;;;15.80;89.00;;;;;;5033152;28;20459;-49
2022/10/26 00:36:21;;;;;;;1.37;1.27;;;15.80;89.00;;;;;;5029555;28;20417;-50
2022/10/26 00:38:50;;;;;;;1.43;0.80;;;15.80;89.00;;;;;;5043799;28;20455;-49
2022/10/26 00:41:20;;;;;;;2.97;1.07;;;15.80;89.00;;;;;;5029992;28;20472;-48
2022/10/26 00:43:51;;;;;;;2.17;1.30;;;15.90;89.10;;;;;;5042534;28;20466;-49
2022/10/26 00:46:22;;;;;;;1.33;1.23;;;15.80;89.00;;;;;;5046175;28;20488;-49
2022/10/26 00:48:55;;;;;;;2.50;1.40;;;15.80;89.00;;;;;;5046099;28;20428;-49
2022/10/26 00:51:29;;;;;;;1.67;1.00;;;15.80;89.00;;;;;;5045610;28;20486;-49
2022/10/26 00:53:57;;;;;;;2.63;1.30;;;15.90;89.10;;;;;;5028994;28;20487;-49
2022/10/26 00:56:27;;;;;;;2.07;1.37;;;15.90;89.10;;;;;;5028972;28;20447;-49
2022/10/26 00:59:02;;;;;;;1.07;1.00;;;15.80;89.00;;;;;;5047357;28;20531;-49
2022/10/26 01:01:33;;;;;;;1.80;1.27;;;15.80;89.00;;;;;;5039667;28;21528;-49
2022/10/26 01:04:02;;;;;;;1.00;1.00;;;15.80;89.00;;;;;;5032310;28;20468;-49
2022/10/26 01:06:33;;;;;;;1.37;1.20;;;15.80;89.00;;;;;;5043595;28;20489;-49
2022/10/26 01:09:05;;;;;;;2.30;1.20;;;15.80;89.00;;;;;;5051884;28;20423;-49
2022/10/26 01:11:34;;;;;;;1.40;1.17;;;15.80;89.20;;;;;;5033117;28;20444;-49
2022/10/26 01:14:07;;;;;;;1.07;0.90;;;15.80;89.20;;;;;;5032222;28;20475;-49
2022/10/26 01:16:55;;;;;;;1.50;1.10;;;15.80;89.10;;;;;;5046785;28;20856;-49
2022/10/26 01:19:57;;;;;;;2.30;1.37;;;15.80;89.20;;;;;;5041714;28;20798;-49
2022/10/26 01:22:29;;;;;;;1.13;1.03;;;15.80;89.20;;;;;;5030628;28;20459;-49
2022/10/26 01:25:17;;;;;;;1.10;1.00;;;15.80;89.20;;;;;;5033007;28;20471;-49
2022/10/26 01:27:49;;;;;;;1.17;1.07;;;15.80;89.50;;;;;;5045706;28;20439;-48
2022/10/26 01:30:27;;;;;;;1.30;0.90;;;15.80;89.40;;;;;;5051307;28;20463;-49
2022/10/26 01:33:18;;;;;;;1.90;1.13;;;15.80;89.50;;;;;;5036777;28;20452;-49
2022/10/26 01:35:53;;;;;;;0.97;0.97;;;15.80;89.60;;;;;;5048029;28;20480;-49
2022/10/26 01:38:29;;;;;;;2.07;1.20;;;15.80;89.40;;;;;;5032227;28;20432;-49
2022/10/26 01:41:04;;;;;;;1.67;1.20;;;15.70;89.40;;;;;;5030170;28;20484;-49
2022/10/26 01:43:38;;;;;;;1.07;1.00;;;15.80;89.60;;;;;;5039124;28;20466;-49
2022/10/26 01:46:11;;;;;;;1.47;1.00;;;15.80;89.60;;;;;;5045111;28;20460;-48
2022/10/26 01:48:42;;;;;;;2.03;1.00;;;15.80;89.60;;;;;;5048134;28;20443;-49
2022/10/26 01:51:12;;;;;;;3.10;1.33;;;15.80;89.60;;;;;;5057684;28;20458;-49
2022/10/26 01:53:46;;;;;;;1.83;1.10;;;15.80;89.50;;;;;;5072183;28;20533;-50
2022/10/26 01:56:19;;;;;;;2.17;1.03;;;15.70;89.40;;;;;;5052045;28;20446;-49
2022/10/26 01:59:09;;;;;;;1.43;0.83;;;15.80;89.60;;;;;;5051534;28;20493;-49
2022/10/26 02:04:58;;;;;;;2.60;1.17;;;15.80;89.60;;;;;;5032176;28;20524;-68
2022/10/26 02:07:35;;;;;;;1.20;1.10;;;15.80;89.70;;;;;;5034836;28;20530;-69
2022/10/26 02:10:14;;;;;;;0.80;0.80;;;15.70;89.60;;;;;;5070129;28;20465;-67
2022/10/26 02:12:52;;;;;;;1.40;1.30;;;15.80;89.80;;;;;;5039015;28;20789;-69
2022/10/26 02:15:25;;;;;;;1.90;1.23;;;15.80;89.90;;;;;;5046767;28;20541;-69
2022/10/26 02:17:59;;;;;;;1.60;1.13;;;15.70;89.70;;;;;;5045239;28;20831;-68
2022/10/26 02:20:32;;;;;;;2.27;1.53;;;15.70;90.40;;;;;;5081764;28;20875;-68
2022/10/26 02:23:03;;;;;;;1.10;0.80;;;15.70;89.90;;;;;;5070307;28;20460;-67
2022/10/26 02:25:35;;;;;;;1.83;1.10;;;15.70;89.90;;;;;;5053395;28;20482;-70
2022/10/26 02:28:07;;;;;;;2.80;1.00;;;15.70;89.80;;;;;;5055027;28;20454;-69
2022/10/26 02:30:38;;;;;;;0.97;0.87;;;15.70;89.80;;;;;;5047916;28;20544;-69
2022/10/26 02:33:09;;;;;;;1.10;0.87;;;15.70;89.60;;;;;;5053342;28;20457;-70
2022/10/26 02:35:42;;;;;;;1.03;0.70;;;15.70;89.90;;;;;;5052506;28;20504;-69
2022/10/26 02:38:13;;;;;;;2.77;0.90;;;15.70;89.90;;;;;;5072372;28;20438;-68
2022/10/26 02:40:42;;;;;;;1.10;1.00;;;15.70;89.90;;;;;;5057417;28;20521;-68
2022/10/26 02:43:14;;;;;;;1.17;1.07;;;15.70;90.00;;;;;;5050943;28;20420;-69
2022/10/26 02:45:49;;;;;;;3.10;1.00;;;15.70;90.00;;;;;;5068315;28;20598;-68
2022/10/26 02:48:18;;;;;;;1.10;0.80;;;15.70;89.90;;;;;;5070599;28;20838;-69
2022/10/26 02:50:58;;;;;;;1.23;0.90;;;15.70;89.80;;;;;;5071585;28;20467;-69
2022/10/26 02:53:30;;;;;;;1.73;0.80;;;15.70;89.90;;;;;;5050527;28;20922;-69
2022/10/26 02:56:04;;;;;;;0.80;0.80;;;15.70;90.00;;;;;;5056386;28;20553;-69
2022/10/26 02:58:39;;;;;;;4.40;0.87;;;15.70;90.00;;;;;;5053506;28;20808;-69
2022/10/26 03:01:08;;;;;;;1.00;0.90;;;15.70;89.80;;;;;;5037416;28;20457;-68
2022/10/26 03:03:36;;;;;;;0.60;0.60;;;15.70;89.80;;;;;;5049195;28;20464;-68
2022/10/26 03:06:06;;;;;;;0.90;0.77;;;15.70;89.70;;;;;;5051259;28;20465;-68
2022/10/26 03:08:35;;;;;;;0.80;0.80;;;15.70;89.80;;;;;;5068126;28;20486;-68
2022/10/26 03:11:03;;;;;;;0.93;0.70;;;15.70;89.70;;;;;;5063366;28;20489;-68
2022/10/26 03:13:31;;;;;;;1.20;1.10;;;15.70;89.60;;;;;;5056587;28;20989;-69
2022/10/26 03:16:00;;;;;;;0.80;0.70;;;15.70;89.40;;;;;;5066769;28;20477;-68
2022/10/26 03:18:28;;;;;;;0.80;0.70;;;15.70;89.40;;;;;;5048348;28;20459;-67
2022/10/26 03:20:56;;;;;;;1.40;0.97;;;15.70;89.30;;;;;;5068397;28;20454;-69
2022/10/26 03:23:26;;;;;;;3.43;1.03;;;15.70;88.90;;;;;;5050302;28;20772;-69
2022/10/26 03:25:56;;;;;;;0.93;0.80;;;15.70;88.90;;;;;;5066138;28;20480;-68
2022/10/26 03:28:25;;;;;;;1.10;0.90;;;15.70;89.00;;;;;;5045390;28;20456;-67
2022/10/26 03:30:53;;;;;;;1.17;1.03;;;15.70;88.90;;;;;;5067279;28;20867;-69
2022/10/26 03:33:22;;;;;;;1.03;0.70;;;15.60;88.80;;;;;;5066718;28;20469;-67
2022/10/26 03:35:57;;;;;;;2.40;1.73;;;15.70;88.90;;;;;;5065151;28;20474;-69
2022/10/26 03:38:27;;;;;;;1.57;0.80;;;15.70;88.90;;;;;;5031009;28;20451;-69
2022/10/26 03:40:55;;;;;;;1.90;1.27;;;15.70;88.90;;;;;;5058251;28;20474;-68
2022/10/26 03:43:23;;;;;;;0.80;0.70;;;15.60;88.80;;;;;;5067821;28;20422;-69
2022/10/26 03:45:52;;;;;;;0.87;0.80;;;15.70;88.90;;;;;;5046509;28;20574;-68
2022/10/26 03:48:20;;;;;;;0.87;0.70;;;15.70;88.90;;;;;;5064213;28;20485;-68
2022/10/26 03:50:48;;;;;;;2.00;0.90;;;15.70;88.90;;;;;;5049613;28;20530;-69
2022/10/26 03:53:17;;;;;;;1.97;1.00;;;15.60;88.90;;;;;;5067776;28;20549;-69
2022/10/26 03:55:47;;;;;;;1.03;0.93;;;15.60;88.80;;;;;;5055396;28;20839;-69
2022/10/26 03:58:15;;;;;;;1.10;0.97;;;15.70;88.90;;;;;;5046573;28;20451;-69
2022/10/26 04:00:43;;;;;;;1.07;0.87;;;15.60;88.80;;;;;;5061611;28;20505;-69
2022/10/26 04:03:12;;;;;;;0.90;0.70;;;15.70;88.90;;;;;;5048246;28;20461;-67
2022/10/26 04:05:40;;;;;;;1.27;0.80;;;15.70;88.90;;;;;;5066282;28;20473;-69
2022/10/26 04:08:09;;;;;;;1.10;0.90;;;15.70;89.00;;;;;;5043465;28;20501;-69
2022/10/26 04:10:37;;;;;;;0.90;0.80;;;15.60;89.20;;;;;;5052440;28;20543;-69
2022/10/26 04:13:08;;;;;;;1.17;0.73;;;15.60;89.20;;;;;;5050464;28;20433;-69
2022/10/26 04:15:37;;;;;;;1.90;0.87;;;15.70;89.00;;;;;;5065588;28;20492;-69
2022/10/26 04:18:05;;;;;;;0.70;0.63;;;15.60;88.90;;;;;;5066219;28;21087;-68
2022/10/26 04:20:35;;;;;;;0.70;0.67;;;15.70;89.40;;;;;;5066695;28;20800;-68
2022/10/26 04:23:05;;;;;;;1.20;1.07;;;15.60;89.10;;;;;;5054425;28;20442;-69
2022/10/26 04:25:34;;;;;;;0.60;0.60;;;15.60;89.30;;;;;;5035278;28;20515;-67
2022/10/26 04:28:03;;;;;;;1.43;0.63;;;15.60;88.90;;;;;;5049691;28;20462;-67
2022/10/26 04:30:34;;;;;;;1.60;1.00;;;15.60;89.00;;;;;;5065528;28;20569;-69
2022/10/26 04:33:03;;;;;;;1.30;0.93;;;15.60;89.10;;;;;;5058306;28;20461;-69
2022/10/26 04:35:32;;;;;;;1.37;0.87;;;15.60;89.30;;;;;;5060712;28;20471;-69
2022/10/26 04:38:01;;;;;;;1.50;1.00;;;15.60;89.90;;;;;;5051207;28;20442;-69
2022/10/26 04:40:31;;;;;;;1.80;1.17;;;15.60;89.50;;;;;;5052810;28;20474;-69
2022/10/26 04:42:59;;;;;;;1.20;0.90;;;15.60;90.00;;;;;;5071333;28;20438;-68
2022/10/26 04:45:29;;;;;;;2.20;0.93;;;15.60;89.90;;;;;;5069647;28;20480;-67
2022/10/26 04:48:05;;;;;;;1.97;0.87;;;15.60;90.10;;;;;;5066417;28;20875;-69
2022/10/26 04:50:34;;;;;;;0.73;0.70;;;15.60;90.20;;;;;;5060788;28;20474;-69
2022/10/26 04:53:03;;;;;;;0.70;0.70;;;15.60;90.10;;;;;;5070614;28;20434;-68
2022/10/26 04:55:32;;;;;;;0.80;0.80;;;15.60;90.30;;;;;;5064994;28;20564;-69
2022/10/26 04:58:00;;;;;;;1.57;0.83;;;15.60;90.20;;;;;;5053856;28;20477;-69
2022/10/26 05:00:31;;;;;;;0.80;0.60;;;15.60;90.10;;;;;;5070306;28;20519;-69
2022/10/26 05:03:00;;;;;;;0.90;0.60;;;15.60;90.10;;;;;;5068515;28;20450;-69
2022/10/26 05:05:31;;;;;;;1.23;0.70;;;15.60;90.20;;;;;;5070065;28;20477;-68
2022/10/26 05:08:00;;;;;;;0.93;0.67;;;15.60;90.30;;;;;;5050266;28;20873;-70
2022/10/26 05:10:29;;;;;;;1.10;0.80;;;15.60;90.10;;;;;;5069676;28;20508;-69
2022/10/26 05:12:59;;;;;;;2.00;1.23;;;15.60;90.10;;;;;;5053633;28;20625;-69
2022/10/26 05:15:28;;;;;;;3.10;0.80;;;15.60;90.20;;;;;;5052802;28;20841;-69
2022/10/26 05:17:58;;;;;;;1.73;0.70;;;15.60;90.30;;;;;;5052130;28;20474;-69
2022/10/26 05:20:29;;;;;;;1.00;0.80;;;15.60;90.20;;;;;;5052489;28;20964;-68
2022/10/26 05:23:01;;;;;;;1.80;1.03;;;15.60;90.30;;;;;;5069789;28;20999;-69
2022/10/26 05:25:31;;;;;;;0.87;0.70;;;15.60;90.20;;;;;;5053603;28;20497;-69
2022/10/26 05:27:59;;;;;;;0.80;0.80;;;15.50;90.10;;;;;;5070632;28;20450;-70
2022/10/26 05:30:29;;;;;;;1.17;0.80;;;15.60;90.10;;;;;;5069510;28;20458;-69
2022/10/26 05:32:58;;;;;;;2.20;0.90;;;15.60;90.10;;;;;;5064121;28;20465;-69
2022/10/26 05:35:27;;;;;;;0.90;0.60;;;15.60;90.10;;;;;;5068960;28;20474;-69
2022/10/26 05:37:55;;;;;;;0.80;0.70;;;15.60;90.10;;;;;;5035548;28;20981;-68
2022/10/26 05:40:26;;;;;;;1.40;1.00;;;15.60;90.10;;;;;;5040944;28;20557;-68
2022/10/26 05:43:00;;;;;;;1.83;1.03;;;15.50;90.10;;;;;;5084045;28;20811;-68
2022/10/26 05:45:28;;;;;;;1.00;0.80;;;15.60;90.20;;;;;;5068193;28;20508;-69
2022/10/26 05:47:57;;;;;;;1.97;0.90;;;15.50;90.20;;;;;;5066879;28;20968;-69
2022/10/26 05:50:30;;;;;;;1.40;0.67;;;15.60;90.50;;;;;;5057972;28;20549;-69
2022/10/26 05:52:58;;;;;;;0.60;0.60;;;15.50;90.40;;;;;;5056324;28;20434;-69
2022/10/26 05:55:29;;;;;;;1.10;1.00;;;15.50;90.50;;;;;;5057916;28;20565;-69
2022/10/26 05:57:58;;;;;;;1.10;0.70;;;15.50;90.40;;;;;;5057707;28;20814;-67
2022/10/26 06:00:28;;;;;;;1.53;1.10;;;15.50;90.50;;;;;;5066972;28;20464;-68
2022/10/26 06:03:17;;;;;;;1.23;0.70;;;15.50;90.40;;;;;;5065391;28;20454;-66
2022/10/26 06:05:52;;;;;;;1.40;1.30;;;15.50;90.50;;;;;;5057891;28;20489;-67
2022/10/26 06:08:22;;;;;;;1.30;0.77;;;15.50;90.90;;;;;;5070040;28;20481;-68
2022/10/26 06:10:53;;;;;;;0.90;0.70;;;15.50;90.80;;;;;;5050806;28;20477;-68
2022/10/26 06:13:22;;;;;;;2.03;0.73;;;15.50;90.80;;;;;;5068633;28;20442;-68
2022/10/26 06:16:03;;;;;;;1.50;0.80;;;15.50;90.80;;;;;;5031746;28;20554;-69
2022/10/26 06:18:42;;;;;;;1.10;0.80;;;15.50;90.80;;;;;;5067131;28;20478;-67
2022/10/26 06:21:22;;;;;;;1.53;1.00;;;15.50;90.60;;;;;;5047183;28;20458;-68
2022/10/26 06:23:55;;;;;;;2.10;1.30;;;15.50;90.60;;;;;;5059136;28;20439;-68
2022/10/26 06:26:39;;;;;;;1.93;0.77;;;15.50;90.90;;;;;;5066936;28;20567;-68
2022/10/26 06:29:19;;;;;;;1.27;0.90;;;15.50;90.70;;;;;;5068707;28;21054;-67
2022/10/26 06:31:48;;;;;;;0.93;0.80;;;15.50;90.90;;;;;;5068228;28;20980;-67
2022/10/26 06:34:25;;;;;;;1.30;0.90;;;15.50;90.80;;;;;;5051962;28;20442;-66
2022/10/26 06:36:56;;;;;;;1.63;1.10;;;15.50;90.90;;;;;;5068112;28;20840;-68
2022/10/26 06:39:28;;;;;;;2.83;1.03;;;15.50;91.20;;;;;;5064855;28;20507;-67
2022/10/26 06:41:58;;;;;;;2.67;1.37;;;15.40;91.20;;;;;;5063630;28;20453;-72
2022/10/26 06:44:27;;;;;;;0.83;0.63;;;15.40;91.20;;;;;;5046891;28;20426;-71
2022/10/26 06:47:04;;;;;;;1.67;1.10;;;15.50;90.90;;;;;;5065220;28;20438;-73
2022/10/26 06:49:36;;;;;;;0.93;0.70;;;15.50;91.60;;;;;;5067019;28;20871;-72
2022/10/26 06:52:13;;;;;;;1.37;1.07;;;15.50;91.20;;;;;;5057739;28;20471;-72
2022/10/26 06:54:48;;;;;;;1.40;1.10;;;15.50;91.30;;;;;;5031831;28;20804;-72
2022/10/26 06:57:19;;;;;;;0.90;0.80;;;15.50;91.20;;;;;;5050853;28;20801;-72
2022/10/26 06:59:51;;;;;;;1.07;0.70;;;15.40;91.10;;;;;;5064658;28;20480;-72
2022/10/26 07:02:20;;;;;;;3.20;1.00;;;15.40;91.30;;;;;;5059989;28;20812;-73
2022/10/26 07:04:48;;;;;;;0.90;0.73;;;15.40;91.40;;;;;;5048576;28;20452;-72
2022/10/26 07:07:20;;;;;;;1.43;1.03;;;15.50;91.40;;;;;;5068036;28;20967;-72
2022/10/26 07:09:49;;;;;;;2.20;1.00;;;15.40;91.60;;;;;;5066815;28;20475;-72
2022/10/26 07:12:19;;;;;;;1.20;1.03;;;15.40;91.70;;;;;;5051362;28;20431;-72
2022/10/26 07:14:47;;;;;;;1.40;1.30;;;15.40;91.30;;;;;;5057991;28;20427;-72
2022/10/26 07:17:15;;;;;;;1.13;1.03;;;15.40;91.30;;;;;;5065304;28;20528;-71
2022/10/26 07:19:44;;;;;;;1.00;0.93;;;15.40;91.20;;;;;;5067238;28;20466;-72
2022/10/26 07:22:13;;;;;;;1.00;0.90;;;15.40;91.30;;;;;;5050084;28;21026;-72
2022/10/26 07:24:41;;;;;;;0.80;0.77;;;15.40;91.20;;;;;;5067747;28;20414;-71
2022/10/26 07:27:09;;;;;;;1.20;1.10;;;15.40;91.40;;;;;;5068112;28;20443;-72
2022/10/26 07:29:39;;;;;;;1.17;1.00;;;15.40;91.20;;;;;;5051048;28;20466;-73
2022/10/26 07:32:08;;;;;;;1.70;0.90;;;15.40;91.10;;;;;;5068094;28;20447;-74
2022/10/26 07:34:36;;;;;;;1.33;0.90;;;15.40;91.20;;;;;;5063048;28;20430;-73
2022/10/26 07:37:04;;;;;;;1.07;0.90;;;15.40;91.20;;;;;;5057424;28;20491;-72
2022/10/26 07:39:33;;;;;;;0.83;0.77;;;15.40;91.50;;;;;;5067444;28;20497;-71
2022/10/26 07:42:01;;;;;;;1.07;0.93;;;15.40;90.90;;;;;;5044932;28;20445;-72
2022/10/26 07:44:29;;;;;;;1.13;0.70;;;15.40;90.90;;;;;;5065143;28;20799;-72
2022/10/26 07:46:59;;;;;;;1.00;0.90;;;15.40;90.90;;;;;;5052648;28;20448;-72
2022/10/26 07:49:27;;;;;;;0.90;0.70;;;15.40;90.90;;;;;;5061321;28;20561;-73
2022/10/26 07:51:56;;;;;;;0.93;0.80;;;15.40;90.80;;;;;;5055875;28;20449;-72
2022/10/26 07:54:24;;;;;;;1.23;1.13;;;15.40;91.00;;;;;;5057475;28;20427;-72
2022/10/26 07:56:52;;;;;;;1.93;1.00;;;15.40;91.10;;;;;;5067200;28;20536;-72
2022/10/26 07:59:21;;;;;;;1.30;1.03;;;15.40;91.10;;;;;;5056770;28;20494;-72
2022/10/26 08:01:49;;;;;;;1.03;0.93;;;15.40;91.20;;;;;;5049170;28;20439;-72
2022/10/26 08:04:20;;;;;;;2.00;1.10;;;15.40;91.00;;;;;;5098680;22;20849;-50
2022/10/26 08:06:49;;;;;;;3.40;1.50;;;15.40;91.20;;;;;;5050177;28;20942;-50
2022/10/26 08:09:19;;;;;;;2.73;1.67;;;15.40;91.90;;;;;;5059116;28;20468;-49
2022/10/26 08:11:47;;;;;;;2.30;1.60;;;15.40;94.10;;;;;;5032494;28;20818;-49
2022/10/26 08:14:16;;;;;;;1.67;1.50;;;15.40;93.90;;;;;;5048081;28;21029;-49
2022/10/26 08:16:45;;;;;;;1.53;0.90;;;15.50;93.80;;;;;;5048727;28;20435;-49
2022/10/26 08:19:13;;;;;;;3.83;1.90;;;15.50;93.50;;;;;;5048976;28;20501;-49
2022/10/26 08:21:44;;;;;;;2.00;1.30;;;15.40;93.90;;;;;;5050225;28;20988;-49
2022/10/26 08:24:13;;;;;;;1.97;1.70;;;15.40;93.70;;;;;;5037409;28;20504;-50
2022/10/26 08:26:42;;;;;;;2.30;1.37;;;15.40;93.10;;;;;;5049737;28;20427;-49
2022/10/26 08:29:11;;;;;;;5.30;1.30;;;15.40;92.90;;;;;;5049954;28;20435;-50
2022/10/26 08:31:42;;;;;;;1.50;0.90;;;15.50;93.00;;;;;;5068134;28;20461;-50
2022/10/26 08:34:11;;;;;;;3.33;0.70;;;15.40;92.90;;;;;;5069149;28;20458;-50
2022/10/26 08:36:39;;;;;;;1.30;1.17;;;15.40;92.80;;;;;;5069929;28;20422;-49
2022/10/26 08:39:10;;;;;;;1.00;0.90;;;15.40;92.60;;;;;;5069702;28;20458;-50
2022/10/26 08:41:42;;;;;;;4.20;1.27;;;15.40;92.50;;;;;;5050313;28;20459;-50
2022/10/26 08:44:24;;;;;;;1.23;1.03;;;15.40;92.60;;;;;;5048733;28;20446;-50
2022/10/26 08:46:58;;;;;;;1.70;1.00;;;15.40;92.40;;;;;;5047127;28;20443;-50
2022/10/26 08:49:31;;;;;;;2.30;1.47;;;15.40;92.30;;;;;;5049287;28;20505;-50
2022/10/26 08:52:01;;;;;;;1.63;1.20;;;15.40;92.20;;;;;;5048872;28;20490;-50
2022/10/26 08:54:40;;;;;;;2.77;1.40;;;15.50;92.20;;;;;;5049225;28;20447;-49
2022/10/26 08:57:19;;;;;;;1.80;1.03;;;15.40;92.00;;;;;;5064194;28;20950;-50
2022/10/26 08:59:53;;;;;;;2.43;1.07;;;15.40;91.90;;;;;;5065112;28;20467;-50
2022/10/26 09:02:23;;;;;;;1.27;0.97;;;15.50;91.90;;;;;;5046449;28;20545;-50
2022/10/26 09:04:53;;;;;;;2.07;1.07;;;15.50;91.80;;;;;;5046415;28;20450;-50
2022/10/26 09:07:36;;;;;;;1.50;1.10;;;15.50;91.80;;;;;;5050685;28;20434;-50
2022/10/26 09:10:34;;;;;;;1.73;0.90;;;15.50;91.70;;;;;;5047497;28;20485;-49
2022/10/26 09:13:09;;;;;;;3.27;1.37;;;15.50;91.90;;;;;;5048198;28;20427;-50
2022/10/26 09:15:50;;;;;;;1.63;1.20;;;15.60;92.20;;;;;;5048277;28;20540;-50
2022/10/26 09:18:30;;;;;;;1.17;1.07;;;15.60;92.10;;;;;;5048597;28;20462;-49
2022/10/26 09:21:09;;;;;;;3.40;1.63;;;15.60;92.10;;;;;;5056974;28;21055;-50
2022/10/26 09:23:55;;;;;;;1.33;1.23;;;15.60;92.10;;;;;;5070266;28;20930;-49
2022/10/26 09:26:37;;;;;;;3.00;1.50;;;15.60;91.90;;;;;;5069035;28;20463;-50
2022/10/26 09:29:12;;;;;;;1.67;0.87;;;15.60;91.90;;;;;;5069288;28;20528;-50
2022/10/26 09:31:44;;;;;;;1.53;1.30;;;15.60;91.80;;;;;;5053499;28;21034;-50
2022/10/26 09:34:19;;;;;;;1.43;1.00;;;15.60;91.80;;;;;;5069347;28;20493;-50
2022/10/26 09:36:53;;;;;;;2.17;1.00;;;15.60;91.70;;;;;;5059139;28;20924;-50
2022/10/26 09:39:29;;;;;;;1.53;1.27;;;15.60;91.70;;;;;;5069483;28;20558;-50
2022/10/26 09:42:12;;;;;;;1.50;1.27;;;15.60;91.70;;;;;;5051888;28;20993;-49
2022/10/26 09:44:45;;;;;;;2.20;0.90;;;15.60;91.60;;;;;;5051077;28;20470;-50
2022/10/26 09:47:23;;;;;;;1.33;1.10;;;15.60;91.60;;;;;;5050023;28;20991;-50
2022/10/26 09:49:56;;;;;;;2.00;0.70;;;15.60;91.60;;;;;;5072445;27;21052;-50
2022/10/26 09:52:25;;;;;;;2.37;1.13;;;15.60;91.60;;;;;;5050459;28;20475;-47
2022/10/26 09:54:54;;;;;;;1.67;1.00;;;15.60;91.90;;;;;;5057442;28;20474;-49
2022/10/26 09:57:24;;;;;;;1.37;1.17;;;15.60;91.70;;;;;;5072391;28;20540;-49
2022/10/26 09:59:54;;;;;;;1.23;0.80;;;15.60;91.70;;;;;;5071986;28;20985;-49
2022/10/26 10:02:34;;;;;;;1.50;1.00;;;15.60;91.80;;;;;;5062755;28;20459;-49
2022/10/26 10:05:20;;;;;;;1.00;0.90;;;15.70;91.90;;;;;;5051799;28;20516;-50
2022/10/26 10:08:33;;;;;;;1.47;1.10;;;15.60;92.00;;;;;;5052745;28;20612;-50
2022/10/26 10:11:17;;;;;;;2.60;2.40;;;15.60;92.00;;;;;;5076087;28;20467;-48
2022/10/26 10:13:47;;;;;;;1.20;1.00;;;15.60;92.00;;;;;;5069055;28;20431;-50
2022/10/26 10:16:25;;;;;;;2.03;1.20;;;15.60;92.00;;;;;;5051014;28;20439;-50
2022/10/26 10:18:55;;;;;;;1.63;1.00;;;15.70;92.00;;;;;;5049780;28;20546;-50
2022/10/26 10:21:36;;;;;;;2.37;1.30;;;15.60;92.00;;;;;;5065109;28;20463;-50
2022/10/26 10:24:29;;;;;;;2.30;0.90;;;15.60;92.00;;;;;;5064758;28;20478;-49
2022/10/26 10:27:04;;;;;;;1.73;0.90;;;15.60;91.90;;;;;;5038887;28;20526;-49
2022/10/26 10:29:41;;;;;;;1.50;0.80;;;15.70;91.90;;;;;;5085838;28;20419;-49
2022/10/26 10:32:16;;;;;;;2.80;1.57;;;15.60;91.90;;;;;;5050287;28;20463;-50
2022/10/26 10:34:45;;;;;;;3.03;1.20;;;15.70;92.00;;;;;;5050803;28;20478;-50
2022/10/26 10:37:24;;;;;;;1.10;0.90;;;15.60;92.00;;;;;;5053545;28;20416;-49
2022/10/26 10:39:58;;;;;;;1.37;1.27;;;15.60;92.00;;;;;;5053266;28;20459;-49
2022/10/26 10:42:31;;;;;;;1.70;1.10;;;15.60;92.00;;;;;;5052720;28;20467;-50
2022/10/26 10:45:02;;;;;;;2.37;1.20;;;15.60;92.00;;;;;;5050961;28;20478;-50
2022/10/26 10:47:33;;;;;;;2.13;1.13;;;15.60;92.00;;;;;;5051518;28;20526;-49
2022/10/26 10:50:10;;;;;;;2.60;1.03;;;15.70;92.10;;;;;;5050403;28;20532;-50
2022/10/26 10:52:43;;;;;;;1.20;0.93;;;15.70;92.10;;;;;;5053073;28;20446;-48
2022/10/26 10:55:18;;;;;;;1.00;0.90;;;15.70;92.50;;;;;;5051211;28;20503;-49
2022/10/26 10:58:04;;;;;;;1.23;0.70;;;15.70;92.00;;;;;;5084650;28;20954;-50
2022/10/26 11:00:37;;;;;;;1.77;0.90;;;15.60;92.50;;;;;;5052189;28;20557;-49
2022/10/26 11:03:28;;;;;;;1.40;1.30;;;15.70;92.10;;;;;;5050618;28;20458;-49
2022/10/26 11:06:10;;;;;;;0.90;0.70;;;15.70;92.10;;;;;;5067349;28;20478;-49
2022/10/26 11:08:45;;;;;;;0.97;0.87;;;15.70;92.00;;;;;;5051744;28;20936;-50
2022/10/26 11:11:19;;;;;;;1.40;1.10;;;15.70;92.10;;;;;;5050061;28;20463;-49
2022/10/26 11:13:55;;;;;;;1.17;0.93;;;15.60;92.00;;;;;;5051604;28;20484;-50
2022/10/26 11:16:30;;;;;;;1.67;0.97;;;15.70;92.10;;;;;;5050310;28;20496;-49
2022/10/26 11:19:04;;;;;;;1.07;0.63;;;15.70;92.10;;;;;;5068190;28;20451;-50
2022/10/26 11:21:37;;;;;;;1.43;0.97;;;15.70;92.00;;;;;;5068146;28;20451;-50
2022/10/26 11:24:15;;;;;;;1.20;0.67;;;15.70;92.10;;;;;;5067051;28;20428;-49
2022/10/26 11:26:52;;;;;;;0.70;0.70;;;15.70;92.10;;;;;;5032295;28;20854;-49
2022/10/26 11:29:32;;;;;;;1.83;1.00;;;15.70;92.10;;;;;;5031547;28;20503;-49
2022/10/26 11:32:15;;;;;;;1.70;0.80;;;15.70;92.10;;;;;;5039007;28;20819;-49
2022/10/26 11:34:50;;;;;;;1.53;0.90;;;15.70;92.10;;;;;;5050115;28;20470;-49
2022/10/26 11:37:25;;;;;;;1.37;0.97;;;15.70;92.10;;;;;;5050910;28;20960;-49
2022/10/26 11:40:04;;;;;;;1.07;0.97;;;15.70;92.10;;;;;;5067778;28;20976;-49
2022/10/26 11:42:42;;;;;;;1.00;0.80;;;15.70;92.10;;;;;;5051493;28;20466;-50
2022/10/26 11:45:18;;;;;;;0.80;0.80;;;15.70;92.10;;;;;;5049582;28;20471;-50
2022/10/26 11:47:52;;;;;;;1.63;1.10;;;15.70;92.20;;;;;;5049992;28;20521;-50
2022/10/26 11:50:24;;;;;;;1.47;1.10;;;15.70;92.20;;;;;;5049948;28;20462;-49
2022/10/26 11:52:58;;;;;;;2.17;0.90;;;15.70;92.20;;;;;;5050980;28;20872;-50
2022/10/26 11:55:28;;;;;;;2.40;1.10;;;15.70;92.20;;;;;;5027231;28;20554;-49
2022/10/26 11:57:58;;;;;;;1.27;1.17;;;15.70;92.20;;;;;;5052018;28;20444;-51
2022/10/26 12:00:28;;;;;;;2.20;1.00;;;15.70;92.80;;;;;;5047429;28;20475;-51
2022/10/26 12:03:02;;;;;;;4.37;1.53;;;15.90;93.70;;;;;;5050985;28;20462;-51
2022/10/26 12:05:41;;;;;;;2.00;1.07;;;16.20;94.00;;;;;;5048113;28;20577;-51
2022/10/26 12:08:16;;;;;;;2.13;1.00;;;16.30;94.20;;;;;;5035827;28;20436;-51
2022/10/26 12:10:50;;;;;;;1.73;1.03;;;16.50;94.10;;;;;;5065450;28;20478;-51
2022/10/26 12:13:27;;;;;;;1.50;0.90;;;16.70;93.70;;;;;;5049756;28;20492;-51
2022/10/26 12:16:01;;;;;;;2.90;1.27;;;16.70;93.40;;;;;;5049318;28;20733;-51
2022/10/26 12:18:41;;;;;;;1.23;0.80;;;16.80;93.40;;;;;;5048619;28;20446;-50
2022/10/26 12:25:33;;;;;;;2.43;1.00;;;16.90;92.90;;;;;;5022180;28;21023;-51
2022/10/26 12:28:56;;;;;;;2.10;1.20;;;16.90;92.50;;;;;;5042709;28;20943;-51
2022/10/26 12:32:25;;;;;;;2.13;1.00;;;16.90;92.40;;;;;;5046974;28;20467;-51
2022/10/26 12:35:53;;;;;;;1.13;0.90;;;16.90;92.20;;;;;;5044248;28;20470;-51
2022/10/26 12:42:53;;;;;;;2.47;1.53;;;17.00;92.20;;;;;;5015842;28;20963;-51
2022/10/26 12:45:40;;;;;;;1.83;1.20;;;17.00;92.00;;;;;;5056290;28;20492;-51
2022/10/26 12:48:29;;;;;;;2.40;1.60;;;17.00;92.10;;;;;;5013264;28;20444;-50
2022/10/26 12:51:43;;;;;;;1.43;1.10;;;17.10;92.10;;;;;;5062036;28;20220;-50
2022/10/26 12:54:32;;;;;;;1.33;1.10;;;17.00;91.90;;;;;;5050234;28;20497;-49
2022/10/26 12:57:15;;;;;;;1.43;1.03;;;16.90;91.80;;;;;;5053615;28;20435;-50
2022/10/26 12:59:48;;;;;;;4.00;1.20;;;16.90;91.90;;;;;;5077460;28;20466;-52
2022/10/26 13:02:43;;;;;;;1.90;1.33;;;16.90;92.40;;;;;;5053067;28;20463;-49
2022/10/26 13:05:37;;;;;;;1.30;0.90;;;16.90;91.80;;;;;;5052334;28;20873;-49
2022/10/26 13:08:10;;;;;;;1.13;1.00;;;16.80;91.80;;;;;;5033733;28;20450;-50
2022/10/26 13:11:00;;;;;;;1.37;1.10;;;16.70;91.80;;;;;;5047049;28;20471;-50
2022/10/26 13:13:31;;;;;;;2.10;1.17;;;16.70;91.80;;;;;;5033439;28;20760;-49
2022/10/26 13:16:01;;;;;;;1.77;0.93;;;16.70;91.90;;;;;;5039255;28;20485;-49
2022/10/26 13:18:31;;;;;;;1.20;0.70;;;16.70;91.80;;;;;;5052921;28;20453;-50
2022/10/26 13:21:07;;;;;;;1.77;1.10;;;16.70;91.90;;;;;;5051803;28;20513;-49
2022/10/26 13:23:39;;;;;;;3.47;1.40;;;16.60;91.80;;;;;;5051257;28;20530;-50
2022/10/26 13:26:11;;;;;;;2.23;1.53;;;16.60;91.80;;;;;;5047941;28;20476;-50
2022/10/26 13:29:17;;;;;;;1.20;1.10;;;16.60;91.80;;;;;;5063855;28;20431;-50
2022/10/26 13:32:07;;;;;;;1.70;1.13;;;16.60;91.80;;;;;;5041490;28;20879;-50
2022/10/26 13:34:55;;;;;;;1.10;0.90;;;16.60;91.90;;;;;;5068912;28;20867;-50